Time;durP1;ratioP1;P1;durP2;ratioP2;P2;SDS_P1;SDS_P2;PMS_P1;PMS_P2;Temp;Humidity;BMP_temperature;BMP_pressure;BME280_temperature;BME280_humidity;BME280_pressure;Samples;Min_cycle;Max_cycle;Signal;HPM_P1;HPM_P2
2023/08/09 00:00:05;;;;;;;1.13;1.00;;;13.90;99.90;;;;;;5056304;28;20404;-71
2023/08/09 00:02:30;;;;;;;0.90;0.90;;;13.90;99.90;;;;;;5055745;28;20277;-69
2023/08/09 00:04:56;;;;;;;0.50;0.50;;;13.90;99.90;;;;;;5056096;28;20902;-69
2023/08/09 00:07:22;;;;;;;1.10;1.10;;;13.90;99.90;;;;;;5056031;28;20213;-70
2023/08/09 00:09:47;;;;;;;0.53;0.53;;;14.20;99.90;;;;;;5056088;28;20265;-70
2023/08/09 00:12:13;;;;;;;0.40;0.40;;;14.00;99.90;;;;;;5055690;28;20566;-71
2023/08/09 00:14:38;;;;;;;1.87;1.50;;;13.90;99.90;;;;;;5055638;28;20257;-69
2023/08/09 00:17:04;;;;;;;2.00;1.47;;;13.90;99.90;;;;;;5055800;28;20174;-71
2023/08/09 00:19:30;;;;;;;0.80;0.80;;;14.00;99.90;;;;;;5055757;28;20544;-69
2023/08/09 00:21:55;;;;;;;0.60;0.60;;;14.30;99.90;;;;;;5055813;28;20658;-69
2023/08/09 00:24:21;;;;;;;1.23;0.90;;;14.20;99.90;;;;;;5055624;28;20581;-71
2023/08/09 00:26:46;;;;;;;2.60;1.07;;;14.20;99.90;;;;;;5055784;28;20551;-71
2023/08/09 00:29:12;;;;;;;0.80;0.67;;;14.20;99.90;;;;;;5055497;28;20630;-71
2023/08/09 00:31:38;;;;;;;1.10;0.60;;;14.10;99.90;;;;;;5055277;28;20198;-71
2023/08/09 00:34:05;;;;;;;1.57;0.80;;;13.90;99.90;;;;;;5055337;28;20236;-71
2023/08/09 00:36:31;;;;;;;2.30;2.20;;;14.00;99.90;;;;;;5055554;28;20170;-71
2023/08/09 00:38:56;;;;;;;0.90;0.60;;;14.00;99.90;;;;;;5055217;28;20964;-69
2023/08/09 00:41:22;;;;;;;0.77;0.77;;;14.00;99.90;;;;;;5055021;28;20661;-70
2023/08/09 00:43:47;;;;;;;0.40;0.40;;;14.00;99.90;;;;;;5055227;28;20166;-71
2023/08/09 00:46:13;;;;;;;0.40;0.40;;;14.10;99.90;;;;;;5055631;28;20180;-70
2023/08/09 00:48:39;;;;;;;1.20;0.93;;;;;;;;;;5055078;28;20169;-71
2023/08/09 00:51:05;;;;;;;1.27;0.97;;;13.80;99.90;;;;;;5055155;28;20234;-69
2023/08/09 00:53:31;;;;;;;0.80;0.80;;;14.00;99.90;;;;;;5054996;28;20441;-70
2023/08/09 00:55:57;;;;;;;0.50;0.50;;;14.00;99.90;;;;;;5055147;28;20198;-70
2023/08/09 00:58:23;;;;;;;1.07;0.87;;;14.30;99.90;;;;;;5055013;28;20412;-69
2023/08/09 01:00:49;;;;;;;0.77;0.73;;;14.10;99.90;;;;;;5054785;28;20550;-70
2023/08/09 01:03:15;;;;;;;2.73;1.23;;;14.20;99.90;;;;;;5055016;28;20866;-71
2023/08/09 01:06:27;;;;;;;1.83;0.70;;;14.10;99.90;;;;;;5055019;28;20170;-70
2023/08/09 01:08:59;;;;;;;1.03;1.03;;;14.10;99.90;;;;;;5054776;28;20408;-71
2023/08/09 01:11:35;;;;;;;0.80;0.80;;;14.00;99.90;;;;;;5054574;28;20943;-71
2023/08/09 01:14:05;;;;;;;0.83;0.83;;;14.00;99.90;;;;;;5053432;28;20491;-70
2023/08/09 01:16:32;;;;;;;2.20;1.90;;;14.00;99.90;;;;;;5054793;28;20444;-70
2023/08/09 01:18:59;;;;;;;1.27;1.17;;;14.00;99.90;;;;;;5054416;28;20424;-70
2023/08/09 01:21:28;;;;;;;0.60;0.60;;;14.30;99.90;;;;;;5054465;28;20780;-69
2023/08/09 01:23:54;;;;;;;0.80;0.80;;;14.10;99.90;;;;;;5054633;28;20404;-70
2023/08/09 01:26:20;;;;;;;1.30;1.20;;;14.10;99.90;;;;;;5054567;28;20461;-71
2023/08/09 01:28:45;;;;;;;1.17;1.03;;;14.10;99.90;;;;;;5054650;28;20167;-70
2023/08/09 01:31:11;;;;;;;1.13;0.73;;;14.10;99.90;;;;;;5054187;28;20265;-70
2023/08/09 01:33:37;;;;;;;0.40;0.40;;;14.20;99.90;;;;;;5054416;28;20709;-71
2023/08/09 01:36:18;;;;;;;0.60;0.60;;;14.10;99.90;;;;;;5054324;28;20689;-69
2023/08/09 01:38:57;;;;;;;0.70;0.70;;;14.00;99.90;;;;;;5054340;28;20401;-71
2023/08/09 01:41:22;;;;;;;0.50;0.50;;;14.30;99.90;;;;;;5054040;28;20425;-71
2023/08/09 01:43:49;;;;;;;0.50;0.50;;;14.10;99.90;;;;;;5054059;28;20494;-71
2023/08/09 01:46:15;;;;;;;0.70;0.70;;;14.40;99.90;;;;;;5054228;28;20626;-70
2023/08/09 01:48:40;;;;;;;0.57;0.57;;;14.20;99.90;;;;;;5053811;28;20441;-70
2023/08/09 01:51:06;;;;;;;0.80;0.80;;;14.30;99.90;;;;;;5054162;28;20432;-71
2023/08/09 01:53:32;;;;;;;0.77;0.70;;;14.10;99.90;;;;;;5053362;28;20170;-70
2023/08/09 01:55:58;;;;;;;0.80;0.67;;;14.10;99.90;;;;;;5053922;28;20596;-72
2023/08/09 01:58:23;;;;;;;0.70;0.70;;;14.00;99.90;;;;;;5053850;28;20170;-69
2023/08/09 02:00:49;;;;;;;0.67;0.67;;;14.10;99.90;;;;;;5053746;28;20451;-69
2023/08/09 02:03:15;;;;;;;1.03;1.03;;;14.10;99.90;;;;;;5053701;28;20177;-71
2023/08/09 02:05:41;;;;;;;0.50;0.50;;;14.20;99.90;;;;;;5053817;28;20178;-71
2023/08/09 02:08:07;;;;;;;0.57;0.57;;;14.10;99.90;;;;;;5053902;28;20180;-69
2023/08/09 02:10:32;;;;;;;0.80;0.80;;;14.00;99.90;;;;;;5053800;28;20424;-69
2023/08/09 02:12:58;;;;;;;2.00;1.60;;;14.00;99.90;;;;;;5053501;28;20416;-70
2023/08/09 02:15:24;;;;;;;0.60;0.60;;;13.90;99.90;;;;;;5053686;28;20198;-71
2023/08/09 02:17:50;;;;;;;0.50;0.50;;;13.80;99.90;;;;;;5053559;28;20165;-69
2023/08/09 02:20:16;;;;;;;1.47;1.40;;;14.00;99.90;;;;;;5052239;28;20428;-70
2023/08/09 02:22:43;;;;;;;3.90;1.87;;;13.80;99.90;;;;;;5053397;28;20211;-71
2023/08/09 02:25:09;;;;;;;0.57;0.57;;;14.10;99.90;;;;;;5053563;28;20887;-69
2023/08/09 02:27:35;;;;;;;0.60;0.60;;;14.10;99.90;;;;;;5053549;28;20895;-70
2023/08/09 02:30:06;;;;;;;0.40;0.40;;;14.10;99.90;;;;;;5053542;28;20412;-71
2023/08/09 02:32:33;;;;;;;2.03;0.93;;;14.20;99.90;;;;;;5053098;28;20201;-70
2023/08/09 02:35:00;;;;;;;1.03;0.90;;;14.40;99.90;;;;;;5053441;28;20455;-71
2023/08/09 02:37:27;;;;;;;0.40;0.40;;;14.20;99.90;;;;;;5053371;28;20393;-70
2023/08/09 02:39:53;;;;;;;0.70;0.67;;;14.20;99.90;;;;;;5053403;28;20478;-70
2023/08/09 02:42:19;;;;;;;0.40;0.40;;;14.10;99.90;;;;;;5053014;28;20444;-70
2023/08/09 02:44:45;;;;;;;0.93;0.77;;;14.20;99.90;;;;;;5053057;28;20398;-70
2023/08/09 02:47:10;;;;;;;1.70;1.17;;;14.20;99.90;;;;;;5053207;28;20175;-71
2023/08/09 02:49:36;;;;;;;0.50;0.50;;;14.20;99.90;;;;;;5052968;28;20436;-71
2023/08/09 02:52:02;;;;;;;0.40;0.40;;;14.20;99.90;;;;;;5052952;28;20192;-71
2023/08/09 02:54:28;;;;;;;1.07;0.97;;;14.10;99.90;;;;;;5053141;28;20194;-69
2023/08/09 02:56:53;;;;;;;0.83;0.83;;;14.10;99.90;;;;;;5053102;28;20490;-70
2023/08/09 02:59:19;;;;;;;0.40;0.40;;;14.10;99.90;;;;;;5053061;28;20202;-70
2023/08/09 03:01:44;;;;;;;0.40;0.40;;;13.90;99.90;;;;;;5052880;28;20189;-72
2023/08/09 03:04:10;;;;;;;0.63;0.63;;;14.10;99.90;;;;;;5054532;28;20635;-71
2023/08/09 03:06:36;;;;;;;1.47;1.37;;;14.00;99.90;;;;;;5057249;28;20167;-71
2023/08/09 03:09:03;;;;;;;0.60;0.60;;;14.00;99.90;;;;;;5057438;28;20408;-71
2023/08/09 03:11:29;;;;;;;1.23;1.10;;;14.10;99.90;;;;;;5056833;28;20193;-70
2023/08/09 03:13:55;;;;;;;0.77;0.77;;;14.10;99.90;;;;;;5057140;28;20397;-71
2023/08/09 03:16:21;;;;;;;0.67;0.67;;;14.30;99.90;;;;;;5055747;28;20448;-70
2023/08/09 03:18:48;;;;;;;0.53;0.53;;;14.10;99.90;;;;;;5055499;28;20201;-71
2023/08/09 03:21:14;;;;;;;0.67;0.67;;;14.10;99.90;;;;;;5056682;28;20469;-69
2023/08/09 03:23:39;;;;;;;0.70;0.70;;;13.90;99.90;;;;;;5055315;28;20400;-71
2023/08/09 03:26:05;;;;;;;1.43;1.00;;;14.10;99.90;;;;;;5056324;28;20176;-69
2023/08/09 03:28:32;;;;;;;7.93;0.87;;;14.10;99.90;;;;;;5056615;28;20168;-70
2023/08/09 03:30:58;;;;;;;0.83;0.83;;;14.10;99.90;;;;;;5056731;28;20432;-70
2023/08/09 03:33:24;;;;;;;2.13;2.03;;;14.30;99.90;;;;;;5056710;28;20422;-69
2023/08/09 03:35:50;;;;;;;1.07;1.07;;;;;;;;;;5056678;28;20194;-69
2023/08/09 03:38:16;;;;;;;0.50;0.50;;;14.20;99.90;;;;;;5056656;28;20393;-70
2023/08/09 03:40:42;;;;;;;0.37;0.37;;;14.30;99.90;;;;;;5056252;28;20453;-70
2023/08/09 03:43:07;;;;;;;2.63;1.40;;;14.20;99.90;;;;;;5056515;28;20181;-71
2023/08/09 03:45:33;;;;;;;0.50;0.50;;;14.20;99.90;;;;;;5056430;28;20183;-71
2023/08/09 03:47:59;;;;;;;0.53;0.50;;;14.30;99.90;;;;;;5056444;28;20172;-70
2023/08/09 03:50:25;;;;;;;1.03;1.03;;;14.50;99.90;;;;;;5056230;28;20185;-71
2023/08/09 03:52:51;;;;;;;0.83;0.83;;;14.30;99.90;;;;;;5055944;28;20415;-71
2023/08/09 03:55:17;;;;;;;0.80;0.80;;;14.30;99.90;;;;;;5056525;28;20453;-70
2023/08/09 03:57:43;;;;;;;0.93;0.90;;;14.40;99.90;;;;;;5056202;28;20407;-71
2023/08/09 04:00:13;;;;;;;0.60;0.40;;;14.40;99.90;;;;;;5056206;28;20210;-71
2023/08/09 04:02:39;;;;;;;0.40;0.40;;;14.30;99.90;;;;;;5055809;28;20415;-69
2023/08/09 04:05:05;;;;;;;1.07;1.07;;;14.30;99.90;;;;;;5056171;28;20401;-71
2023/08/09 04:07:31;;;;;;;0.30;0.30;;;14.30;99.90;;;;;;5054748;28;20681;-70
2023/08/09 04:09:56;;;;;;;1.57;1.47;;;14.30;99.90;;;;;;5056194;28;20166;-69
2023/08/09 04:12:22;;;;;;;0.83;0.50;;;14.40;99.90;;;;;;5055765;28;20475;-71
2023/08/09 04:14:48;;;;;;;0.60;0.60;;;14.30;99.90;;;;;;5055766;28;20197;-70
2023/08/09 04:17:13;;;;;;;1.13;1.13;;;14.30;99.90;;;;;;5055398;28;20174;-69
2023/08/09 04:19:39;;;;;;;1.17;1.17;;;14.30;99.90;;;;;;5055695;28;20530;-71
2023/08/09 04:22:04;;;;;;;0.90;0.60;;;14.40;99.90;;;;;;5055587;28;20193;-72
2023/08/09 04:24:30;;;;;;;1.13;1.03;;;14.40;99.90;;;;;;5055697;28;20200;-70
2023/08/09 04:26:55;;;;;;;0.93;0.83;;;14.40;99.90;;;;;;5054519;28;20174;-71
2023/08/09 04:29:21;;;;;;;0.60;0.60;;;14.40;99.90;;;;;;5055749;28;20209;-70
2023/08/09 04:31:48;;;;;;;1.10;1.00;;;14.40;99.90;;;;;;5055388;28;20278;-70
2023/08/09 04:34:13;;;;;;;0.40;0.40;;;14.40;99.90;;;;;;5055391;28;20470;-72
2023/08/09 04:36:39;;;;;;;1.40;1.30;;;14.40;99.90;;;;;;5055902;28;20882;-71
2023/08/09 04:39:09;;;;;;;0.63;0.63;;;14.50;99.90;;;;;;5055521;28;20222;-71
2023/08/09 04:41:35;;;;;;;0.57;0.57;;;14.50;99.90;;;;;;5055139;28;20601;-71
2023/08/09 04:44:00;;;;;;;0.67;0.60;;;14.50;99.90;;;;;;5055385;28;20401;-69
2023/08/09 04:46:26;;;;;;;0.93;0.93;;;14.50;99.90;;;;;;5055267;28;20419;-71
2023/08/09 04:48:52;;;;;;;1.70;0.80;;;14.50;99.90;;;;;;5055109;28;20232;-69
2023/08/09 04:51:18;;;;;;;0.50;0.50;;;14.60;99.90;;;;;;5053743;28;20194;-71
2023/08/09 04:53:44;;;;;;;0.60;0.60;;;14.60;99.90;;;;;;5055173;28;20658;-71
2023/08/09 04:56:10;;;;;;;0.87;0.87;;;14.70;99.90;;;;;;5055105;28;20454;-70
2023/08/09 04:58:37;;;;;;;0.50;0.50;;;15.70;99.90;;;;;;5053077;28;20404;-69
2023/08/09 05:01:03;;;;;;;3.30;1.23;;;14.60;99.90;;;;;;5054677;28;20424;-70
2023/08/09 05:03:29;;;;;;;1.67;1.10;;;14.60;99.90;;;;;;5054989;28;20547;-70
2023/08/09 05:05:54;;;;;;;5.23;0.90;;;14.70;99.90;;;;;;5052926;28;20170;-68
2023/08/09 05:08:20;;;;;;;2.07;1.97;;;;;;;;;;5054797;28;20192;-69
2023/08/09 05:10:46;;;;;;;0.50;0.50;;;14.80;99.90;;;;;;5054439;28;20554;-70
2023/08/09 05:13:11;;;;;;;0.80;0.80;;;14.80;99.90;;;;;;5052950;28;20410;-69
2023/08/09 05:15:37;;;;;;;1.50;1.33;;;14.80;99.90;;;;;;5055084;28;20205;-70
2023/08/09 05:18:04;;;;;;;0.80;0.80;;;15.00;99.90;;;;;;5054771;28;20170;-72
2023/08/09 05:20:29;;;;;;;1.80;1.20;;;14.90;99.90;;;;;;5054685;28;20276;-70
2023/08/09 05:22:55;;;;;;;0.67;0.67;;;15.00;99.90;;;;;;5054658;28;20414;-71
2023/08/09 05:25:20;;;;;;;0.60;0.60;;;15.10;99.90;;;;;;5055049;28;20619;-70
2023/08/09 05:27:47;;;;;;;0.90;0.90;;;15.00;99.90;;;;;;5053877;28;20185;-71
2023/08/09 05:30:13;;;;;;;0.50;0.50;;;15.10;99.90;;;;;;5054994;28;20170;-70
2023/08/09 05:32:38;;;;;;;1.10;1.10;;;15.20;99.90;;;;;;5054244;28;20447;-71
2023/08/09 05:35:05;;;;;;;0.50;0.50;;;15.20;99.90;;;;;;5054650;28;20452;-71
2023/08/09 05:37:31;;;;;;;0.60;0.50;;;15.20;99.90;;;;;;5054922;28;20166;-70
2023/08/09 05:39:56;;;;;;;2.50;1.33;;;15.20;99.90;;;;;;5054660;28;20411;-71
2023/08/09 05:42:22;;;;;;;8.93;0.40;;;15.20;99.90;;;;;;5052038;28;20442;-71
2023/08/09 05:44:48;;;;;;;1.27;1.23;;;15.20;99.90;;;;;;5053896;28;20220;-72
2023/08/09 05:47:13;;;;;;;0.40;0.40;;;15.40;99.90;;;;;;5054300;28;20412;-71
2023/08/09 05:49:39;;;;;;;1.13;1.13;;;15.40;99.90;;;;;;5054005;28;20190;-70
2023/08/09 05:52:05;;;;;;;0.60;0.60;;;15.40;99.90;;;;;;5053877;28;20216;-71
2023/08/09 05:54:31;;;;;;;0.63;0.63;;;15.40;99.90;;;;;;5054009;28;20741;-71
2023/08/09 05:56:56;;;;;;;0.83;0.83;;;15.40;99.90;;;;;;5054129;28;20492;-70
2023/08/09 05:59:22;;;;;;;0.63;0.63;;;15.00;99.90;;;;;;5054020;28;20204;-70
2023/08/09 06:01:49;;;;;;;0.60;0.60;;;15.40;99.90;;;;;;5053571;28;20232;-71
2023/08/09 06:04:15;;;;;;;0.70;0.50;;;15.50;99.90;;;;;;5053829;28;20576;-70
2023/08/09 06:06:41;;;;;;;0.50;0.50;;;15.50;99.90;;;;;;5053986;28;20401;-71
2023/08/09 06:09:09;;;;;;;0.40;0.40;;;15.50;99.90;;;;;;5053832;28;20404;-71
2023/08/09 06:11:35;;;;;;;0.70;0.70;;;15.80;99.90;;;;;;5053541;28;20194;-71
2023/08/09 06:14:00;;;;;;;0.57;0.50;;;15.70;99.90;;;;;;5053117;28;20416;-72
2023/08/09 06:16:26;;;;;;;1.50;1.23;;;15.70;99.90;;;;;;5053371;28;20455;-71
2023/08/09 06:18:52;;;;;;;0.80;0.80;;;15.60;99.90;;;;;;5053630;28;20170;-70
2023/08/09 06:21:18;;;;;;;0.40;0.40;;;15.60;99.90;;;;;;5053435;28;20428;-71
2023/08/09 06:23:44;;;;;;;2.30;1.07;;;15.60;99.90;;;;;;5053676;28;20783;-70
2023/08/09 06:26:09;;;;;;;1.13;0.77;;;15.60;99.90;;;;;;5053471;28;20170;-71
2023/08/09 06:28:35;;;;;;;3.40;1.00;;;15.50;99.90;;;;;;5053676;28;20174;-71
2023/08/09 06:31:01;;;;;;;1.17;0.60;;;15.60;99.90;;;;;;5053234;28;20216;-70
2023/08/09 06:33:29;;;;;;;0.80;0.73;;;;;;;;;;5052696;28;20208;-70
2023/08/09 06:35:55;;;;;;;0.50;0.50;;;15.50;99.90;;;;;;5052320;28;20204;-70
2023/08/09 06:38:21;;;;;;;0.67;0.67;;;15.50;99.90;;;;;;5053089;28;20408;-69
2023/08/09 06:40:46;;;;;;;0.50;0.50;;;15.50;99.90;;;;;;5053289;28;20193;-71
2023/08/09 06:43:12;;;;;;;0.50;0.50;;;15.50;99.90;;;;;;5053285;28;20219;-69
2023/08/09 06:45:38;;;;;;;0.60;0.60;;;15.60;99.90;;;;;;5053386;28;20183;-71
2023/08/09 06:48:04;;;;;;;0.70;0.60;;;15.70;99.90;;;;;;5053222;28;20186;-71
2023/08/09 06:50:30;;;;;;;1.37;0.70;;;15.60;99.90;;;;;;5052946;28;20207;-68
2023/08/09 06:52:56;;;;;;;0.40;0.40;;;15.60;99.90;;;;;;5053039;28;20530;-70
2023/08/09 06:55:22;;;;;;;1.13;1.03;;;;;;;;;;5053009;28;20201;-70
2023/08/09 06:57:48;;;;;;;0.60;0.60;;;15.80;99.90;;;;;;5053356;28;20261;-72
2023/08/09 07:00:17;;;;;;;0.40;0.40;;;15.90;99.90;;;;;;5053459;28;20487;-72
2023/08/09 07:02:45;;;;;;;0.47;0.47;;;16.00;99.90;;;;;;5053069;28;20634;-68
2023/08/09 07:05:15;;;;;;;0.40;0.40;;;16.00;99.90;;;;;;5053328;28;20749;-70
2023/08/09 07:07:45;;;;;;;0.80;0.80;;;16.00;99.90;;;;;;5052026;28;20416;-70
2023/08/09 07:10:11;;;;;;;0.60;0.60;;;16.00;99.90;;;;;;5053269;28;20409;-70
2023/08/09 07:12:37;;;;;;;0.70;0.70;;;16.00;99.90;;;;;;5052961;28;21065;-70
2023/08/09 07:15:08;;;;;;;1.20;1.00;;;16.10;99.90;;;;;;5052988;28;20485;-71
2023/08/09 07:17:35;;;;;;;0.50;0.50;;;16.00;99.90;;;;;;5053401;28;20174;-70
2023/08/09 07:20:02;;;;;;;0.40;0.40;;;15.80;99.90;;;;;;5050402;28;20427;-72
2023/08/09 07:22:27;;;;;;;0.43;0.43;;;16.00;99.90;;;;;;5052551;28;20428;-71
2023/08/09 07:24:53;;;;;;;0.50;0.50;;;15.90;99.90;;;;;;5051119;28;20419;-70
2023/08/09 07:27:19;;;;;;;1.67;0.70;;;15.80;99.90;;;;;;5049091;28;20634;-71
2023/08/09 07:29:44;;;;;;;0.63;0.50;;;15.80;99.90;;;;;;5050996;28;20224;-71
2023/08/09 07:32:10;;;;;;;0.40;0.40;;;15.80;99.90;;;;;;5051310;28;20194;-70
2023/08/09 07:34:36;;;;;;;1.10;0.70;;;15.70;99.90;;;;;;5051377;28;20198;-71
2023/08/09 07:37:02;;;;;;;1.10;1.00;;;15.80;99.90;;;;;;5051469;28;20181;-70
2023/08/09 07:39:27;;;;;;;0.40;0.40;;;15.80;99.90;;;;;;5051568;28;20430;-70
2023/08/09 07:41:53;;;;;;;0.60;0.60;;;15.80;99.90;;;;;;5052230;28;20194;-71
2023/08/09 07:44:18;;;;;;;0.60;0.60;;;15.70;99.90;;;;;;5052316;28;20225;-70
2023/08/09 07:46:44;;;;;;;0.70;0.60;;;15.80;99.90;;;;;;5052707;28;20212;-69
2023/08/09 07:49:10;;;;;;;0.50;0.50;;;15.80;99.90;;;;;;5052520;28;20190;-70
2023/08/09 07:51:36;;;;;;;0.60;0.60;;;15.90;99.90;;;;;;5054177;28;20240;-71
2023/08/09 07:54:02;;;;;;;0.50;0.50;;;15.80;99.90;;;;;;5056148;28;20170;-71
2023/08/09 07:56:28;;;;;;;0.40;0.40;;;15.80;99.90;;;;;;5056324;28;20468;-71
2023/08/09 07:58:54;;;;;;;1.13;0.70;;;15.80;99.90;;;;;;5053847;28;20407;-70
2023/08/09 08:01:19;;;;;;;0.70;0.60;;;15.90;99.90;;;;;;5056262;28;20220;-70
2023/08/09 08:03:47;;;;;;;0.73;0.73;;;15.90;99.90;;;;;;5056415;28;20171;-72
2023/08/09 08:06:14;;;;;;;1.00;0.83;;;16.00;99.90;;;;;;5052741;28;20182;-71
2023/08/09 08:08:41;;;;;;;1.23;0.70;;;16.30;99.90;;;;;;5056227;28;20764;-69
2023/08/09 08:11:07;;;;;;;0.70;0.70;;;16.40;99.90;;;;;;5055361;28;20855;-70
2023/08/09 08:13:33;;;;;;;0.60;0.60;;;16.60;99.90;;;;;;5055946;28;20412;-72
2023/08/09 08:15:59;;;;;;;1.13;0.60;;;16.70;99.90;;;;;;5055814;28;20991;-70
2023/08/09 08:18:26;;;;;;;0.63;0.50;;;16.80;99.90;;;;;;5056016;28;20881;-70
2023/08/09 08:20:52;;;;;;;0.60;0.60;;;16.80;99.90;;;;;;5055704;28;20182;-69
2023/08/09 08:23:18;;;;;;;0.90;0.90;;;16.90;99.90;;;;;;5055927;28;20455;-72
2023/08/09 08:25:44;;;;;;;0.60;0.60;;;17.00;99.90;;;;;;5055586;28;20178;-72
2023/08/09 08:28:10;;;;;;;1.53;1.20;;;17.20;99.90;;;;;;5055173;28;20162;-72
2023/08/09 08:30:36;;;;;;;0.70;0.60;;;17.40;99.90;;;;;;5055205;28;20432;-72
2023/08/09 08:33:02;;;;;;;1.40;1.30;;;17.60;99.90;;;;;;5053200;28;20413;-71
2023/08/09 08:35:33;;;;;;;0.73;0.73;;;17.80;99.90;;;;;;5054813;28;20792;-72
2023/08/09 08:37:59;;;;;;;0.40;0.40;;;18.10;99.90;;;;;;5054286;28;20206;-71
2023/08/09 08:40:25;;;;;;;1.00;1.00;;;18.40;99.90;;;;;;5053828;28;20434;-72
2023/08/09 08:42:51;;;;;;;0.60;0.50;;;18.40;99.30;;;;;;5055264;28;20412;-72
2023/08/09 08:45:19;;;;;;;1.63;1.47;;;18.50;98.30;;;;;;5054993;28;20414;-70
2023/08/09 08:47:45;;;;;;;0.73;0.73;;;18.60;98.00;;;;;;5053709;28;20176;-72
2023/08/09 08:50:13;;;;;;;2.87;0.70;;;18.60;97.90;;;;;;5055102;28;20430;-74
2023/08/09 08:52:44;;;;;;;0.60;0.60;;;18.60;97.40;;;;;;5053743;28;20442;-73
2023/08/09 08:55:12;;;;;;;1.03;0.87;;;18.70;97.10;;;;;;5054434;28;20455;-71
2023/08/09 08:57:40;;;;;;;0.77;0.77;;;18.50;95.50;;;;;;5055356;28;20762;-71
2023/08/09 09:00:08;;;;;;;0.40;0.40;;;18.50;95.40;;;;;;5055147;28;20423;-73
2023/08/09 09:02:38;;;;;;;0.63;0.63;;;18.60;95.50;;;;;;5054774;28;20439;-74
2023/08/09 09:05:06;;;;;;;0.37;0.37;;;18.80;95.00;;;;;;5055003;28;21033;-73
2023/08/09 09:07:33;;;;;;;0.93;0.90;;;19.10;95.30;;;;;;5054973;28;20412;-71
2023/08/09 09:10:05;;;;;;;1.07;1.07;;;19.50;95.10;;;;;;5054976;28;20483;-73
2023/08/09 09:12:34;;;;;;;1.33;0.70;;;19.90;94.00;;;;;;5054698;28;20429;-72
2023/08/09 09:15:01;;;;;;;0.53;0.53;;;20.40;92.10;;;;;;5054260;28;20487;-73
2023/08/09 09:17:27;;;;;;;1.43;1.33;;;20.70;90.90;;;;;;5054758;28;20488;-71
2023/08/09 09:19:52;;;;;;;0.73;0.73;;;20.80;90.50;;;;;;5054627;28;20413;-72
2023/08/09 09:22:29;;;;;;;0.77;0.70;;;21.10;90.90;;;;;;5054261;28;20423;-72
2023/08/09 09:24:58;;;;;;;1.13;0.83;;;21.50;90.00;;;;;;5054780;28;20264;-71
2023/08/09 09:27:33;;;;;;;0.40;0.40;;;21.70;89.60;;;;;;5054621;28;20425;-71
2023/08/09 09:30:07;;;;;;;0.40;0.40;;;21.80;88.30;;;;;;5054630;28;20442;-72
2023/08/09 09:32:33;;;;;;;1.17;1.07;;;21.80;87.60;;;;;;5054267;28;20431;-72
2023/08/09 09:34:59;;;;;;;0.70;0.70;;;21.60;86.00;;;;;;5054369;28;20446;-71
2023/08/09 09:37:26;;;;;;;0.67;0.67;;;21.60;88.20;;;;;;5054492;28;20236;-71
2023/08/09 09:39:52;;;;;;;0.70;0.60;;;21.60;85.80;;;;;;5054143;28;20261;-71
2023/08/09 09:42:29;;;;;;;0.50;0.50;;;21.70;87.40;;;;;;5054009;28;20844;-72
2023/08/09 09:45:07;;;;;;;1.07;1.07;;;21.80;85.70;;;;;;5054303;28;20470;-72
2023/08/09 09:47:39;;;;;;;0.70;0.70;;;21.70;85.60;;;;;;5054121;28;20420;-71
2023/08/09 09:50:09;;;;;;;0.80;0.80;;;21.70;85.60;;;;;;5053935;28;20805;-72
2023/08/09 09:52:36;;;;;;;1.47;1.40;;;22.00;86.50;;;;;;5053778;28;20436;-71
2023/08/09 09:55:03;;;;;;;0.70;0.60;;;22.90;85.70;;;;;;5054109;28;20434;-71
2023/08/09 09:57:29;;;;;;;0.60;0.50;;;23.70;84.20;;;;;;5053940;28;20463;-72
2023/08/09 10:00:04;;;;;;;0.97;0.97;;;24.30;79.50;;;;;;5053923;28;20405;-72
2023/08/09 10:02:45;;;;;;;1.03;0.60;;;24.50;76.20;;;;;;5053639;28;20432;-71
2023/08/09 10:05:18;;;;;;;0.50;0.50;;;23.90;75.20;;;;;;5053998;28;20478;-71
2023/08/09 10:07:46;;;;;;;1.60;1.50;;;23.70;79.50;;;;;;5053744;28;20485;-73
2023/08/09 10:10:12;;;;;;;0.40;0.40;;;24.00;80.10;;;;;;5053777;28;20388;-71
2023/08/09 10:12:42;;;;;;;0.60;0.57;;;24.40;79.10;;;;;;5053524;28;20435;-72
2023/08/09 10:15:11;;;;;;;0.53;0.50;;;25.00;80.90;;;;;;5053315;28;20587;-73
2023/08/09 10:17:38;;;;;;;1.43;1.33;;;26.20;75.90;;;;;;5053756;28;20431;-72
2023/08/09 10:20:05;;;;;;;0.80;0.80;;;27.10;71.60;;;;;;5053758;28;20463;-71
2023/08/09 10:22:31;;;;;;;0.40;0.40;;;27.10;64.20;;;;;;5053362;28;20432;-72
2023/08/09 10:24:57;;;;;;;0.50;0.50;;;26.90;66.70;;;;;;5053666;28;20755;-73
2023/08/09 10:27:49;;;;;;;14.60;2.10;;;27.40;64.40;;;;;;5053452;28;20178;-71
2023/08/09 10:30:17;;;;;;;0.83;0.60;;;28.20;61.90;;;;;;5053339;28;20499;-73
2023/08/09 10:32:51;;;;;;;0.80;0.73;;;28.90;60.70;;;;;;5053280;28;20408;-72
2023/08/09 10:35:19;;;;;;;2.20;0.90;;;29.40;58.60;;;;;;5052016;28;20817;-72
2023/08/09 10:37:44;;;;;;;0.40;0.40;;;29.40;58.40;;;;;;5053391;28;20428;-71
2023/08/09 10:40:18;;;;;;;3.30;0.60;;;29.10;57.70;;;;;;5053355;28;20420;-72
2023/08/09 10:42:46;;;;;;;1.03;1.03;;;28.40;57.10;;;;;;5053276;28;20167;-71
2023/08/09 10:45:13;;;;;;;0.60;0.57;;;28.40;57.60;;;;;;5053391;28;20393;-71
2023/08/09 10:47:40;;;;;;;0.67;0.50;;;28.20;58.80;;;;;;5053146;28;20428;-72
2023/08/09 10:50:13;;;;;;;0.40;0.40;;;27.40;65.10;;;;;;5053193;28;20952;-70
2023/08/09 10:52:50;;;;;;;1.43;0.70;;;27.30;62.40;;;;;;5052984;28;20822;-73
2023/08/09 10:55:19;;;;;;;0.43;0.43;;;27.20;58.80;;;;;;5052794;28;20931;-72
2023/08/09 10:57:49;;;;;;;0.70;0.60;;;27.40;58.90;;;;;;5052866;28;20415;-72
2023/08/09 11:00:16;;;;;;;0.40;0.40;;;27.50;62.80;;;;;;5053126;28;20512;-71
2023/08/09 11:02:46;;;;;;;1.27;1.17;;;27.60;63.10;;;;;;5053040;28;20463;-71
2023/08/09 11:05:12;;;;;;;0.80;0.73;;;26.80;58.00;;;;;;5053134;28;20913;-72
2023/08/09 11:07:43;;;;;;;0.50;0.50;;;26.40;59.60;;;;;;5053300;28;20495;-72
2023/08/09 11:10:08;;;;;;;0.53;0.53;;;26.40;61.30;;;;;;5053036;28;20450;-70
2023/08/09 11:12:35;;;;;;;1.03;0.87;;;26.50;63.60;;;;;;5052815;28;20424;-71
2023/08/09 11:15:00;;;;;;;0.60;0.60;;;26.40;62.10;;;;;;5052951;28;20237;-72
2023/08/09 11:17:26;;;;;;;0.53;0.50;;;26.40;63.20;;;;;;5053080;28;20412;-71
2023/08/09 11:19:53;;;;;;;0.87;0.80;;;26.50;60.80;;;;;;5053054;28;20399;-71
2023/08/09 11:22:19;;;;;;;0.80;0.70;;;26.50;61.80;;;;;;5052669;28;20936;-73
2023/08/09 11:24:44;;;;;;;0.80;0.80;;;26.40;61.60;;;;;;5052959;28;20426;-72
2023/08/09 11:27:11;;;;;;;0.40;0.40;;;25.70;60.80;;;;;;5056359;28;20178;-73
2023/08/09 11:29:37;;;;;;;0.43;0.43;;;26.20;62.30;;;;;;5056853;28;20749;-71
2023/08/09 11:32:03;;;;;;;0.53;0.53;;;25.90;62.70;;;;;;5056627;28;20436;-73
2023/08/09 11:34:29;;;;;;;1.07;0.70;;;26.20;67.00;;;;;;5056641;28;20812;-73
2023/08/09 11:36:56;;;;;;;1.17;0.70;;;26.50;60.20;;;;;;5056874;28;20405;-73
2023/08/09 11:39:24;;;;;;;0.50;0.50;;;26.50;61.00;;;;;;5056666;28;20412;-72
2023/08/09 11:41:55;;;;;;;1.50;0.60;;;26.40;61.70;;;;;;5056245;28;20499;-72
2023/08/09 11:44:26;;;;;;;0.83;0.50;;;26.10;64.00;;;;;;5056590;28;20436;-72
2023/08/09 11:46:56;;;;;;;0.83;0.60;;;25.80;65.70;;;;;;5056688;28;20380;-71
2023/08/09 11:49:29;;;;;;;0.70;0.60;;;25.70;66.20;;;;;;5056368;28;20500;-71
2023/08/09 11:51:55;;;;;;;0.80;0.67;;;25.90;61.70;;;;;;5056420;28;20527;-72
2023/08/09 11:54:22;;;;;;;0.40;0.40;;;25.70;62.70;;;;;;5055714;28;20777;-70
2023/08/09 11:56:48;;;;;;;0.90;0.80;;;25.10;63.80;;;;;;5056335;28;20410;-73
2023/08/09 11:59:17;;;;;;;0.60;0.60;;;25.20;91.40;;;;;;5053831;28;20401;-70
2023/08/09 12:01:48;;;;;;;0.40;0.40;;;25.30;62.70;;;;;;5054349;28;20425;-73
2023/08/09 12:04:19;;;;;;;0.70;0.50;;;25.00;62.50;;;;;;5054135;28;20491;-72
2023/08/09 12:06:50;;;;;;;0.80;0.73;;;24.70;62.90;;;;;;5054537;28;20435;-71
2023/08/09 12:09:31;;;;;;;0.67;0.67;;;24.90;66.60;;;;;;5055898;28;20486;-71
2023/08/09 12:12:11;;;;;;;0.57;0.57;;;24.90;65.30;;;;;;5055774;28;20427;-71
2023/08/09 12:14:44;;;;;;;0.60;0.60;;;24.60;61.80;;;;;;5056017;28;20742;-71
2023/08/09 12:17:20;;;;;;;2.20;0.50;;;24.20;65.50;;;;;;5054540;28;20891;-72
2023/08/09 12:19:46;;;;;;;0.50;0.50;;;24.50;68.60;;;;;;5054099;28;20515;-72
2023/08/09 12:22:12;;;;;;;1.20;0.80;;;24.70;66.90;;;;;;5056105;28;20802;-72
2023/08/09 12:24:37;;;;;;;0.60;0.60;;;24.80;66.20;;;;;;5054733;28;20253;-72
2023/08/09 12:27:03;;;;;;;0.60;0.60;;;25.00;69.40;;;;;;5054199;28;20875;-72
2023/08/09 12:29:29;;;;;;;0.50;0.50;;;25.30;66.10;;;;;;5056066;28;20166;-73
2023/08/09 12:31:56;;;;;;;0.90;0.80;;;;;;;;;;5055399;28;20419;-71
2023/08/09 12:34:22;;;;;;;1.60;0.60;;;25.70;59.80;;;;;;5055627;28;20466;-71
2023/08/09 12:36:47;;;;;;;0.73;0.70;;;25.30;62.40;;;;;;5055095;28;20554;-71
2023/08/09 12:39:16;;;;;;;1.43;0.80;;;25.30;64.30;;;;;;5055555;28;20174;-71
2023/08/09 12:41:42;;;;;;;0.70;0.53;;;25.30;65.70;;;;;;5055280;28;20193;-72
2023/08/09 12:44:08;;;;;;;1.13;0.73;;;24.90;67.90;;;;;;5055354;28;20405;-73
2023/08/09 12:46:34;;;;;;;0.47;0.47;;;24.70;70.00;;;;;;5055316;28;20375;-72